sensor_id;sensor_type;location;lat;lon;timestamp;temperature;humidity
38265;DHT22;24062;47.480;8.768;2023-03-29T00:02:02;8.10;51.80
38265;DHT22;24062;47.480;8.768;2023-03-29T00:04:30;8.10;51.80
38265;DHT22;24062;47.480;8.768;2023-03-29T00:06:58;8.10;51.90
38265;DHT22;24062;47.480;8.768;2023-03-29T00:09:29;8.20;51.80
38265;DHT22;24062;47.480;8.768;2023-03-29T00:11:57;8.20;51.80
38265;DHT22;24062;47.480;8.768;2023-03-29T00:14:24;8.30;51.90
38265;DHT22;24062;47.480;8.768;2023-03-29T00:16:51;8.30;51.80
38265;DHT22;24062;47.480;8.768;2023-03-29T00:19:18;8.30;51.80
38265;DHT22;24062;47.480;8.768;2023-03-29T00:21:46;8.30;51.70
38265;DHT22;24062;47.480;8.768;2023-03-29T00:24:13;8.30;51.60
38265;DHT22;24062;47.480;8.768;2023-03-29T00:26:40;8.40;51.90
38265;DHT22;24062;47.480;8.768;2023-03-29T00:29:07;8.40;51.90
38265;DHT22;24062;47.480;8.768;2023-03-29T00:31:34;8.40;51.80
38265;DHT22;24062;47.480;8.768;2023-03-29T00:34:01;8.30;51.80
38265;DHT22;24062;47.480;8.768;2023-03-29T00:36:28;8.30;51.80
38265;DHT22;24062;47.480;8.768;2023-03-29T00:38:57;8.30;51.90
38265;DHT22;24062;47.480;8.768;2023-03-29T00:41:24;8.30;51.80
38265;DHT22;24062;47.480;8.768;2023-03-29T00:43:54;8.40;52.00
38265;DHT22;24062;47.480;8.768;2023-03-29T00:46:21;8.50;52.10
38265;DHT22;24062;47.480;8.768;2023-03-29T00:48:50;8.50;51.90
38265;DHT22;24062;47.480;8.768;2023-03-29T00:51:19;8.40;51.80
38265;DHT22;24062;47.480;8.768;2023-03-29T00:53:48;8.50;51.90
38265;DHT22;24062;47.480;8.768;2023-03-29T00:56:20;8.50;51.90
38265;DHT22;24062;47.480;8.768;2023-03-29T00:58:52;8.50;51.90
38265;DHT22;24062;47.480;8.768;2023-03-29T01:01:24;8.50;51.80
38265;DHT22;24062;47.480;8.768;2023-03-29T01:03:58;8.60;51.90
38265;DHT22;24062;47.480;8.768;2023-03-29T01:06:28;8.60;51.90
38265;DHT22;24062;47.480;8.768;2023-03-29T01:09:01;8.60;51.90
38265;DHT22;24062;47.480;8.768;2023-03-29T01:11:38;8.60;51.90
38265;DHT22;24062;47.480;8.768;2023-03-29T01:14:10;8.60;51.90
38265;DHT22;24062;47.480;8.768;2023-03-29T01:16:37;8.60;51.90
38265;DHT22;24062;47.480;8.768;2023-03-29T01:19:06;8.70;52.00
38265;DHT22;24062;47.480;8.768;2023-03-29T01:21:38;8.70;52.00
38265;DHT22;24062;47.480;8.768;2023-03-29T01:24:36;8.60;51.90
38265;DHT22;24062;47.480;8.768;2023-03-29T01:27:13;8.60;51.90
38265;DHT22;24062;47.480;8.768;2023-03-29T01:29:46;8.60;51.90
38265;DHT22;24062;47.480;8.768;2023-03-29T01:32:17;8.70;52.00
38265;DHT22;24062;47.480;8.768;2023-03-29T01:34:50;8.70;52.00
38265;DHT22;24062;47.480;8.768;2023-03-29T01:37:22;8.70;52.00
38265;DHT22;24062;47.480;8.768;2023-03-29T01:39:52;8.80;52.00
38265;DHT22;24062;47.480;8.768;2023-03-29T01:42:30;8.80;52.60
38265;DHT22;24062;47.480;8.768;2023-03-29T01:45:08;8.80;52.00
38265;DHT22;24062;47.480;8.768;2023-03-29T01:47:43;8.80;51.90
38265;DHT22;24062;47.480;8.768;2023-03-29T01:50:14;8.80;52.00
38265;DHT22;24062;47.480;8.768;2023-03-29T01:52:47;8.80;51.90
38265;DHT22;24062;47.480;8.768;2023-03-29T01:55:20;8.90;52.00
38265;DHT22;24062;47.480;8.768;2023-03-29T01:57:48;8.90;52.00
38265;DHT22;24062;47.480;8.768;2023-03-29T02:00:22;8.80;52.00
38265;DHT22;24062;47.480;8.768;2023-03-29T02:02:51;8.80;52.00
38265;DHT22;24062;47.480;8.768;2023-03-29T02:05:21;8.90;52.00
38265;DHT22;24062;47.480;8.768;2023-03-29T02:07:49;8.90;52.10
38265;DHT22;24062;47.480;8.768;2023-03-29T02:10:18;8.90;52.10
38265;DHT22;24062;47.480;8.768;2023-03-29T02:12:46;9.00;52.20
38265;DHT22;24062;47.480;8.768;2023-03-29T02:15:14;8.90;52.10
38265;DHT22;24062;47.480;8.768;2023-03-29T02:17:44;8.90;52.10
38265;DHT22;24062;47.480;8.768;2023-03-29T02:20:15;9.00;52.20
38265;DHT22;24062;47.480;8.768;2023-03-29T02:22:50;9.00;52.20
38265;DHT22;24062;47.480;8.768;2023-03-29T02:25:18;9.00;52.20
38265;DHT22;24062;47.480;8.768;2023-03-29T02:27:47;8.90;52.20
38265;DHT22;24062;47.480;8.768;2023-03-29T02:30:16;9.00;52.50
38265;DHT22;24062;47.480;8.768;2023-03-29T02:32:52;8.90;52.50
38265;DHT22;24062;47.480;8.768;2023-03-29T02:35:26;8.90;52.50
38265;DHT22;24062;47.480;8.768;2023-03-29T02:37:59;8.90;52.60
38265;DHT22;24062;47.480;8.768;2023-03-29T02:40:27;8.90;52.60
38265;DHT22;24062;47.480;8.768;2023-03-29T02:42:55;9.00;52.70
38265;DHT22;24062;47.480;8.768;2023-03-29T02:45:24;9.00;52.80
38265;DHT22;24062;47.480;8.768;2023-03-29T02:47:55;9.00;52.80
38265;DHT22;24062;47.480;8.768;2023-03-29T02:50:24;9.00;52.90
38265;DHT22;24062;47.480;8.768;2023-03-29T02:52:53;9.00;52.90
38265;DHT22;24062;47.480;8.768;2023-03-29T02:55:23;9.00;53.00
38265;DHT22;24062;47.480;8.768;2023-03-29T02:57:55;9.00;53.00
38265;DHT22;24062;47.480;8.768;2023-03-29T03:00:22;9.00;53.10
38265;DHT22;24062;47.480;8.768;2023-03-29T03:02:49;9.00;53.10
38265;DHT22;24062;47.480;8.768;2023-03-29T03:05:18;9.00;53.40
38265;DHT22;24062;47.480;8.768;2023-03-29T03:07:45;8.90;53.50
38265;DHT22;24062;47.480;8.768;2023-03-29T03:10:11;8.90;53.60
38265;DHT22;24062;47.480;8.768;2023-03-29T03:12:38;8.80;53.70
38265;DHT22;24062;47.480;8.768;2023-03-29T03:15:07;8.80;54.10
38265;DHT22;24062;47.480;8.768;2023-03-29T03:17:34;8.70;54.20
38265;DHT22;24062;47.480;8.768;2023-03-29T03:20:07;8.70;54.10
38265;DHT22;24062;47.480;8.768;2023-03-29T03:22:39;8.70;54.20
38265;DHT22;24062;47.480;8.768;2023-03-29T03:25:06;8.70;54.70
38265;DHT22;24062;47.480;8.768;2023-03-29T03:27:36;8.60;54.60
38265;DHT22;24062;47.480;8.768;2023-03-29T03:30:03;8.60;55.10
38265;DHT22;24062;47.480;8.768;2023-03-29T03:32:31;8.50;54.90
38265;DHT22;24062;47.480;8.768;2023-03-29T03:34:58;8.50;54.90
38265;DHT22;24062;47.480;8.768;2023-03-29T03:37:25;8.50;55.20
38265;DHT22;24062;47.480;8.768;2023-03-29T03:39:54;8.50;55.30
38265;DHT22;24062;47.480;8.768;2023-03-29T03:42:21;8.40;55.20
38265;DHT22;24062;47.480;8.768;2023-03-29T03:44:48;8.30;55.70
38265;DHT22;24062;47.480;8.768;2023-03-29T03:47:15;8.30;55.60
38265;DHT22;24062;47.480;8.768;2023-03-29T03:49:43;8.30;56.30
38265;DHT22;24062;47.480;8.768;2023-03-29T03:52:10;8.20;56.20
38265;DHT22;24062;47.480;8.768;2023-03-29T03:54:37;8.10;56.30
38265;DHT22;24062;47.480;8.768;2023-03-29T03:57:06;8.20;56.20
38265;DHT22;24062;47.480;8.768;2023-03-29T03:59:33;8.30;56.20
38265;DHT22;24062;47.480;8.768;2023-03-29T04:02:00;8.30;56.00
38265;DHT22;24062;47.480;8.768;2023-03-29T04:04:27;8.40;56.10
38265;DHT22;24062;47.480;8.768;2023-03-29T04:06:54;8.40;56.20
38265;DHT22;24062;47.480;8.768;2023-03-29T04:09:27;8.40;56.00
38265;DHT22;24062;47.480;8.768;2023-03-29T04:11:54;8.50;55.70
38265;DHT22;24062;47.480;8.768;2023-03-29T04:14:23;8.60;55.70
38265;DHT22;24062;47.480;8.768;2023-03-29T04:16:50;8.70;55.30
38265;DHT22;24062;47.480;8.768;2023-03-29T04:19:18;8.70;55.10
38265;DHT22;24062;47.480;8.768;2023-03-29T04:21:45;8.80;55.30
38265;DHT22;24062;47.480;8.768;2023-03-29T04:24:14;8.80;54.90
38265;DHT22;24062;47.480;8.768;2023-03-29T04:26:41;8.90;55.00
38265;DHT22;24062;47.480;8.768;2023-03-29T04:29:08;8.80;54.80
38265;DHT22;24062;47.480;8.768;2023-03-29T04:31:37;8.90;54.90
38265;DHT22;24062;47.480;8.768;2023-03-29T04:34:04;8.90;55.00
38265;DHT22;24062;47.480;8.768;2023-03-29T04:36:30;8.90;54.90
38265;DHT22;24062;47.480;8.768;2023-03-29T04:38:58;8.90;55.00
38265;DHT22;24062;47.480;8.768;2023-03-29T04:41:26;8.90;54.70
38265;DHT22;24062;47.480;8.768;2023-03-29T04:43:53;8.90;54.50
38265;DHT22;24062;47.480;8.768;2023-03-29T04:46:20;9.00;54.50
38265;DHT22;24062;47.480;8.768;2023-03-29T04:48:51;8.90;54.20
38265;DHT22;24062;47.480;8.768;2023-03-29T04:51:18;9.00;54.20
38265;DHT22;24062;47.480;8.768;2023-03-29T04:53:47;9.00;54.40
38265;DHT22;24062;47.480;8.768;2023-03-29T04:56:15;9.00;54.00
38265;DHT22;24062;47.480;8.768;2023-03-29T04:58:42;9.00;53.90
38265;DHT22;24062;47.480;8.768;2023-03-29T05:01:10;9.00;53.70
38265;DHT22;24062;47.480;8.768;2023-03-29T05:03:37;9.00;53.70
38265;DHT22;24062;47.480;8.768;2023-03-29T05:06:07;9.00;53.80
38265;DHT22;24062;47.480;8.768;2023-03-29T05:08:35;9.00;53.80
38265;DHT22;24062;47.480;8.768;2023-03-29T05:11:04;9.00;53.70
38265;DHT22;24062;47.480;8.768;2023-03-29T05:13:32;9.00;53.80
38265;DHT22;24062;47.480;8.768;2023-03-29T05:15:59;9.00;53.70
38265;DHT22;24062;47.480;8.768;2023-03-29T05:18:27;9.00;53.60
38265;DHT22;24062;47.480;8.768;2023-03-29T05:20:55;9.00;53.40
38265;DHT22;24062;47.480;8.768;2023-03-29T05:23:24;9.00;53.10
38265;DHT22;24062;47.480;8.768;2023-03-29T05:25:51;9.10;53.40
38265;DHT22;24062;47.480;8.768;2023-03-29T05:28:18;9.10;53.10
38265;DHT22;24062;47.480;8.768;2023-03-29T05:30:46;9.10;53.00
38265;DHT22;24062;47.480;8.768;2023-03-29T05:33:13;9.20;53.10
38265;DHT22;24062;47.480;8.768;2023-03-29T05:35:41;9.20;53.10
38265;DHT22;24062;47.480;8.768;2023-03-29T05:38:08;9.20;53.20
38265;DHT22;24062;47.480;8.768;2023-03-29T05:40:36;9.30;52.90
38265;DHT22;24062;47.480;8.768;2023-03-29T05:43:03;9.40;52.70
38265;DHT22;24062;47.480;8.768;2023-03-29T05:45:30;9.40;53.00
38265;DHT22;24062;47.480;8.768;2023-03-29T05:47:58;9.40;52.80
38265;DHT22;24062;47.480;8.768;2023-03-29T05:50:25;9.50;53.00
38265;DHT22;24062;47.480;8.768;2023-03-29T05:52:52;9.50;52.90
38265;DHT22;24062;47.480;8.768;2023-03-29T05:55:19;9.60;52.60
38265;DHT22;24062;47.480;8.768;2023-03-29T05:57:47;9.60;52.70
38265;DHT22;24062;47.480;8.768;2023-03-29T06:00:15;9.70;52.80
38265;DHT22;24062;47.480;8.768;2023-03-29T06:02:48;9.80;52.50
38265;DHT22;24062;47.480;8.768;2023-03-29T06:05:15;9.80;52.80
38265;DHT22;24062;47.480;8.768;2023-03-29T06:07:42;9.80;52.80
38265;DHT22;24062;47.480;8.768;2023-03-29T06:10:10;9.90;53.00
38265;DHT22;24062;47.480;8.768;2023-03-29T06:12:37;9.90;52.80
38265;DHT22;24062;47.480;8.768;2023-03-29T06:15:06;9.90;52.80
38265;DHT22;24062;47.480;8.768;2023-03-29T06:17:35;10.00;51.80
38265;DHT22;24062;47.480;8.768;2023-03-29T06:20:03;10.10;52.20
38265;DHT22;24062;47.480;8.768;2023-03-29T06:22:33;10.10;52.10
38265;DHT22;24062;47.480;8.768;2023-03-29T06:24:59;10.20;52.10
38265;DHT22;24062;47.480;8.768;2023-03-29T06:27:27;10.30;52.00
38265;DHT22;24062;47.480;8.768;2023-03-29T06:29:54;10.30;52.00
38265;DHT22;24062;47.480;8.768;2023-03-29T06:32:22;10.40;52.00
38265;DHT22;24062;47.480;8.768;2023-03-29T06:34:49;10.50;52.10
38265;DHT22;24062;47.480;8.768;2023-03-29T06:37:16;10.50;52.00
38265;DHT22;24062;47.480;8.768;2023-03-29T06:39:43;10.60;51.20
38265;DHT22;24062;47.480;8.768;2023-03-29T06:42:10;10.70;51.20
38265;DHT22;24062;47.480;8.768;2023-03-29T06:44:37;10.70;51.30
38265;DHT22;24062;47.480;8.768;2023-03-29T06:47:04;10.70;50.40
38265;DHT22;24062;47.480;8.768;2023-03-29T06:49:33;10.70;50.80
38265;DHT22;24062;47.480;8.768;2023-03-29T06:52:00;10.80;51.20
38265;DHT22;24062;47.480;8.768;2023-03-29T06:54:27;10.90;50.40
38265;DHT22;24062;47.480;8.768;2023-03-29T06:56:54;10.90;50.00
38265;DHT22;24062;47.480;8.768;2023-03-29T06:59:22;10.90;50.20
38265;DHT22;24062;47.480;8.768;2023-03-29T07:01:48;10.90;49.90
38265;DHT22;24062;47.480;8.768;2023-03-29T07:04:19;11.00;50.30
38265;DHT22;24062;47.480;8.768;2023-03-29T07:06:48;11.10;50.10
38265;DHT22;24062;47.480;8.768;2023-03-29T07:09:26;11.10;49.70
38265;DHT22;24062;47.480;8.768;2023-03-29T07:11:54;11.20;48.70
38265;DHT22;24062;47.480;8.768;2023-03-29T07:14:21;11.20;49.50
38265;DHT22;24062;47.480;8.768;2023-03-29T07:16:50;11.20;49.00
38265;DHT22;24062;47.480;8.768;2023-03-29T07:19:17;11.20;49.00
38265;DHT22;24062;47.480;8.768;2023-03-29T07:21:48;11.40;48.80
38265;DHT22;24062;47.480;8.768;2023-03-29T07:24:16;11.40;48.90
38265;DHT22;24062;47.480;8.768;2023-03-29T07:26:44;11.40;48.40
38265;DHT22;24062;47.480;8.768;2023-03-29T07:29:11;11.40;48.80
38265;DHT22;24062;47.480;8.768;2023-03-29T07:31:38;11.40;48.70
38265;DHT22;24062;47.480;8.768;2023-03-29T07:34:07;11.40;48.90
38265;DHT22;24062;47.480;8.768;2023-03-29T07:36:35;11.50;48.80
38265;DHT22;24062;47.480;8.768;2023-03-29T07:39:05;11.50;49.00
38265;DHT22;24062;47.480;8.768;2023-03-29T07:41:34;11.50;49.00
38265;DHT22;24062;47.480;8.768;2023-03-29T07:44:01;11.70;49.50
38265;DHT22;24062;47.480;8.768;2023-03-29T07:46:33;11.80;48.80
38265;DHT22;24062;47.480;8.768;2023-03-29T07:49:00;11.90;49.00
38265;DHT22;24062;47.480;8.768;2023-03-29T07:51:28;11.90;48.90
38265;DHT22;24062;47.480;8.768;2023-03-29T07:53:55;11.90;48.50
38265;DHT22;24062;47.480;8.768;2023-03-29T07:56:24;12.00;49.00
38265;DHT22;24062;47.480;8.768;2023-03-29T07:58:51;12.10;48.40
38265;DHT22;24062;47.480;8.768;2023-03-29T08:01:18;12.10;49.10
38265;DHT22;24062;47.480;8.768;2023-03-29T08:03:46;12.10;47.80
38265;DHT22;24062;47.480;8.768;2023-03-29T08:06:13;12.00;47.70
38265;DHT22;24062;47.480;8.768;2023-03-29T08:08:41;12.00;48.10
38265;DHT22;24062;47.480;8.768;2023-03-29T08:11:08;12.10;47.40
38265;DHT22;24062;47.480;8.768;2023-03-29T08:13:37;12.20;47.90
38265;DHT22;24062;47.480;8.768;2023-03-29T08:16:04;12.30;47.70
38265;DHT22;24062;47.480;8.768;2023-03-29T08:18:32;12.40;47.60
38265;DHT22;24062;47.480;8.768;2023-03-29T08:20:59;12.40;47.70
38265;DHT22;24062;47.480;8.768;2023-03-29T08:23:26;12.60;48.10
38265;DHT22;24062;47.480;8.768;2023-03-29T08:25:53;12.70;47.80
38265;DHT22;24062;47.480;8.768;2023-03-29T08:28:20;12.80;47.60
38265;DHT22;24062;47.480;8.768;2023-03-29T08:30:49;12.80;47.20
38265;DHT22;24062;47.480;8.768;2023-03-29T08:33:16;12.80;47.20
38265;DHT22;24062;47.480;8.768;2023-03-29T08:35:43;12.80;47.30
38265;DHT22;24062;47.480;8.768;2023-03-29T08:38:10;12.90;46.80
38265;DHT22;24062;47.480;8.768;2023-03-29T08:40:38;13.00;47.10
38265;DHT22;24062;47.480;8.768;2023-03-29T08:46:09;13.10;47.90
38265;DHT22;24062;47.480;8.768;2023-03-29T08:48:39;13.40;47.10
38265;DHT22;24062;47.480;8.768;2023-03-29T08:51:13;13.40;46.60
38265;DHT22;24062;47.480;8.768;2023-03-29T08:53:47;13.30;46.80
38265;DHT22;24062;47.480;8.768;2023-03-29T08:56:19;13.30;46.90
38265;DHT22;24062;47.480;8.768;2023-03-29T08:58:46;13.20;46.50
38265;DHT22;24062;47.480;8.768;2023-03-29T09:01:16;13.30;47.40
38265;DHT22;24062;47.480;8.768;2023-03-29T09:03:47;13.60;47.40
38265;DHT22;24062;47.480;8.768;2023-03-29T09:06:15;13.60;46.60
38265;DHT22;24062;47.480;8.768;2023-03-29T09:08:46;13.80;47.20
38265;DHT22;24062;47.480;8.768;2023-03-29T09:11:31;13.80;47.10
38265;DHT22;24062;47.480;8.768;2023-03-29T09:14:18;14.10;47.70
38265;DHT22;24062;47.480;8.768;2023-03-29T09:16:51;14.40;47.40
38265;DHT22;24062;47.480;8.768;2023-03-29T09:19:25;14.60;47.00
38265;DHT22;24062;47.480;8.768;2023-03-29T09:21:59;14.70;46.00
38265;DHT22;24062;47.480;8.768;2023-03-29T09:24:39;14.40;46.10
38265;DHT22;24062;47.480;8.768;2023-03-29T09:27:11;14.40;46.20
38265;DHT22;24062;47.480;8.768;2023-03-29T09:29:49;14.60;47.60
38265;DHT22;24062;47.480;8.768;2023-03-29T09:32:21;14.80;46.20
38265;DHT22;24062;47.480;8.768;2023-03-29T09:34:56;15.00;46.40
38265;DHT22;24062;47.480;8.768;2023-03-29T09:37:28;14.90;45.90
38265;DHT22;24062;47.480;8.768;2023-03-29T09:39:57;15.00;46.30
38265;DHT22;24062;47.480;8.768;2023-03-29T09:42:26;15.00;46.20
38265;DHT22;24062;47.480;8.768;2023-03-29T09:44:58;15.00;45.30
38265;DHT22;24062;47.480;8.768;2023-03-29T09:47:36;14.90;46.70
38265;DHT22;24062;47.480;8.768;2023-03-29T09:50:09;15.00;45.80
38265;DHT22;24062;47.480;8.768;2023-03-29T09:52:38;15.20;46.50
38265;DHT22;24062;47.480;8.768;2023-03-29T09:55:05;15.30;46.20
38265;DHT22;24062;47.480;8.768;2023-03-29T09:57:33;15.30;45.50
38265;DHT22;24062;47.480;8.768;2023-03-29T10:00:00;15.30;46.20
38265;DHT22;24062;47.480;8.768;2023-03-29T10:02:30;15.40;46.00
38265;DHT22;24062;47.480;8.768;2023-03-29T10:05:03;15.30;46.20
38265;DHT22;24062;47.480;8.768;2023-03-29T10:07:38;15.30;46.10
38265;DHT22;24062;47.480;8.768;2023-03-29T10:10:09;15.30;45.90
38265;DHT22;24062;47.480;8.768;2023-03-29T10:12:46;15.20;46.40
38265;DHT22;24062;47.480;8.768;2023-03-29T10:15:16;15.30;47.00
38265;DHT22;24062;47.480;8.768;2023-03-29T10:17:43;15.30;46.30
38265;DHT22;24062;47.480;8.768;2023-03-29T10:20:15;15.20;46.70
38265;DHT22;24062;47.480;8.768;2023-03-29T10:22:47;15.10;47.20
38265;DHT22;24062;47.480;8.768;2023-03-29T10:25:16;15.10;47.10
38265;DHT22;24062;47.480;8.768;2023-03-29T10:27:45;14.90;46.80
38265;DHT22;24062;47.480;8.768;2023-03-29T10:30:20;14.80;47.00
38265;DHT22;24062;47.480;8.768;2023-03-29T10:32:54;14.80;46.80
38265;DHT22;24062;47.480;8.768;2023-03-29T10:35:27;14.80;47.70
38265;DHT22;24062;47.480;8.768;2023-03-29T10:37:56;15.10;48.00
38265;DHT22;24062;47.480;8.768;2023-03-29T10:40:26;15.30;47.80
38265;DHT22;24062;47.480;8.768;2023-03-29T10:42:58;15.30;46.60
38265;DHT22;24062;47.480;8.768;2023-03-29T10:45:28;15.40;47.70
38265;DHT22;24062;47.480;8.768;2023-03-29T10:47:56;15.70;47.80
38265;DHT22;24062;47.480;8.768;2023-03-29T10:50:25;16.10;47.50
38265;DHT22;24062;47.480;8.768;2023-03-29T10:52:57;16.40;47.60
38265;DHT22;24062;47.480;8.768;2023-03-29T10:55:29;16.70;47.60
38265;DHT22;24062;47.480;8.768;2023-03-29T10:58:04;16.70;47.40
38265;DHT22;24062;47.480;8.768;2023-03-29T11:00:39;16.20;46.00
38265;DHT22;24062;47.480;8.768;2023-03-29T11:03:31;16.20;46.00
38265;DHT22;24062;47.480;8.768;2023-03-29T11:06:11;16.40;46.80
38265;DHT22;24062;47.480;8.768;2023-03-29T11:08:55;16.90;48.00
38265;DHT22;24062;47.480;8.768;2023-03-29T11:11:38;17.50;47.80
38265;DHT22;24062;47.480;8.768;2023-03-29T11:14:15;17.60;45.70
38265;DHT22;24062;47.480;8.768;2023-03-29T11:16:48;17.50;45.60
38265;DHT22;24062;47.480;8.768;2023-03-29T11:19:38;17.20;45.00
38265;DHT22;24062;47.480;8.768;2023-03-29T11:22:13;17.10;44.90
38265;DHT22;24062;47.480;8.768;2023-03-29T11:25:13;17.10;45.40
38265;DHT22;24062;47.480;8.768;2023-03-29T11:27:51;17.00;45.30
38265;DHT22;24062;47.480;8.768;2023-03-29T11:30:24;16.60;45.40
38265;DHT22;24062;47.480;8.768;2023-03-29T11:32:58;16.60;46.40
38265;DHT22;24062;47.480;8.768;2023-03-29T11:35:40;16.80;46.30
38265;DHT22;24062;47.480;8.768;2023-03-29T11:38:21;16.80;45.10
38265;DHT22;24062;47.480;8.768;2023-03-29T11:40:59;16.50;44.60
38265;DHT22;24062;47.480;8.768;2023-03-29T11:43:31;16.50;45.50
38265;DHT22;24062;47.480;8.768;2023-03-29T11:46:03;16.70;44.80
38265;DHT22;24062;47.480;8.768;2023-03-29T11:48:37;16.80;44.30
38265;DHT22;24062;47.480;8.768;2023-03-29T11:51:11;16.80;43.90
38265;DHT22;24062;47.480;8.768;2023-03-29T11:53:47;17.00;44.30
38265;DHT22;24062;47.480;8.768;2023-03-29T11:56:21;17.20;43.80
38265;DHT22;24062;47.480;8.768;2023-03-29T11:58:54;17.50;44.90
38265;DHT22;24062;47.480;8.768;2023-03-29T12:01:27;18.10;45.10
38265;DHT22;24062;47.480;8.768;2023-03-29T12:03:58;18.50;44.40
38265;DHT22;24062;47.480;8.768;2023-03-29T12:06:30;18.70;43.60
38265;DHT22;24062;47.480;8.768;2023-03-29T12:09:03;18.60;42.30
38265;DHT22;24062;47.480;8.768;2023-03-29T12:11:35;18.60;43.40
38265;DHT22;24062;47.480;8.768;2023-03-29T12:14:07;18.70;42.90
38265;DHT22;24062;47.480;8.768;2023-03-29T12:16:40;18.70;43.10
38265;DHT22;24062;47.480;8.768;2023-03-29T12:19:15;18.90;43.10
38265;DHT22;24062;47.480;8.768;2023-03-29T12:21:44;19.20;43.60
38265;DHT22;24062;47.480;8.768;2023-03-29T12:24:20;19.40;43.10
38265;DHT22;24062;47.480;8.768;2023-03-29T12:27:17;19.70;42.80
38265;DHT22;24062;47.480;8.768;2023-03-29T12:30:22;19.70;42.60
38265;DHT22;24062;47.480;8.768;2023-03-29T12:33:19;19.80;42.40
38265;DHT22;24062;47.480;8.768;2023-03-29T12:36:00;19.80;42.30
38265;DHT22;24062;47.480;8.768;2023-03-29T12:38:28;20.00;43.00
38265;DHT22;24062;47.480;8.768;2023-03-29T12:40:59;20.00;41.80
38265;DHT22;24062;47.480;8.768;2023-03-29T12:45:29;20.30;43.50
38265;DHT22;24062;47.480;8.768;2023-03-29T12:49:34;20.80;42.20
38265;DHT22;24062;47.480;8.768;2023-03-29T12:53:42;20.50;42.40
38265;DHT22;24062;47.480;8.768;2023-03-29T12:57:41;20.40;41.10
38265;DHT22;24062;47.480;8.768;2023-03-29T13:01:37;20.50;42.20
38265;DHT22;24062;47.480;8.768;2023-03-29T13:05:40;20.60;42.90
38265;DHT22;24062;47.480;8.768;2023-03-29T13:08:20;21.20;42.30
38265;DHT22;24062;47.480;8.768;2023-03-29T13:12:35;21.40;42.10
38265;DHT22;24062;47.480;8.768;2023-03-29T13:16:45;21.00;41.60
38265;DHT22;24062;47.480;8.768;2023-03-29T13:20:45;20.50;42.10
38265;DHT22;24062;47.480;8.768;2023-03-29T13:23:27;20.90;42.60
38265;DHT22;24062;47.480;8.768;2023-03-29T13:26:09;21.00;42.80
38265;DHT22;24062;47.480;8.768;2023-03-29T13:28:50;21.50;42.70
38265;DHT22;24062;47.480;8.768;2023-03-29T13:31:28;21.60;42.90
38265;DHT22;24062;47.480;8.768;2023-03-29T13:34:02;22.00;43.10
38265;DHT22;24062;47.480;8.768;2023-03-29T13:36:43;22.70;43.30
38265;DHT22;24062;47.480;8.768;2023-03-29T13:39:18;23.30;42.90
38265;DHT22;24062;47.480;8.768;2023-03-29T13:41:48;23.80;41.60
38265;DHT22;24062;47.480;8.768;2023-03-29T13:44:24;24.30;41.70
38265;DHT22;24062;47.480;8.768;2023-03-29T13:47:01;25.00;42.50
38265;DHT22;24062;47.480;8.768;2023-03-29T13:49:32;26.10;42.00
38265;DHT22;24062;47.480;8.768;2023-03-29T13:52:09;27.00;41.80
38265;DHT22;24062;47.480;8.768;2023-03-29T13:54:42;27.10;36.90
38265;DHT22;24062;47.480;8.768;2023-03-29T13:57:14;26.60;38.20
38265;DHT22;24062;47.480;8.768;2023-03-29T13:59:46;26.10;39.10
38265;DHT22;24062;47.480;8.768;2023-03-29T14:02:20;26.60;38.10
38265;DHT22;24062;47.480;8.768;2023-03-29T14:04:50;27.50;38.00
38265;DHT22;24062;47.480;8.768;2023-03-29T14:07:19;28.30;37.90
38265;DHT22;24062;47.480;8.768;2023-03-29T14:09:51;29.70;38.30
38265;DHT22;24062;47.480;8.768;2023-03-29T14:12:19;31.40;37.80
38265;DHT22;24062;47.480;8.768;2023-03-29T14:14:46;32.70;35.60
38265;DHT22;24062;47.480;8.768;2023-03-29T14:17:17;33.40;35.10
38265;DHT22;24062;47.480;8.768;2023-03-29T14:19:45;34.20;34.10
38265;DHT22;24062;47.480;8.768;2023-03-29T14:22:16;34.20;34.30
38265;DHT22;24062;47.480;8.768;2023-03-29T14:24:46;34.00;31.10
38265;DHT22;24062;47.480;8.768;2023-03-29T14:27:14;30.80;30.50
38265;DHT22;24062;47.480;8.768;2023-03-29T14:29:45;28.40;32.40
38265;DHT22;24062;47.480;8.768;2023-03-29T14:32:13;26.80;33.20
38265;DHT22;24062;47.480;8.768;2023-03-29T14:34:42;25.60;34.20
38265;DHT22;24062;47.480;8.768;2023-03-29T14:37:10;24.80;35.10
38265;DHT22;24062;47.480;8.768;2023-03-29T14:39:39;24.30;35.90
38265;DHT22;24062;47.480;8.768;2023-03-29T14:42:13;23.90;36.50
38265;DHT22;24062;47.480;8.768;2023-03-29T14:44:42;23.50;36.70
38265;DHT22;24062;47.480;8.768;2023-03-29T14:47:14;23.10;37.10
38265;DHT22;24062;47.480;8.768;2023-03-29T14:49:43;22.90;37.40
38265;DHT22;24062;47.480;8.768;2023-03-29T14:52:12;22.60;37.90
38265;DHT22;24062;47.480;8.768;2023-03-29T14:54:44;22.40;38.20
38265;DHT22;24062;47.480;8.768;2023-03-29T14:57:14;22.40;38.40
38265;DHT22;24062;47.480;8.768;2023-03-29T14:59:47;22.10;38.80
38265;DHT22;24062;47.480;8.768;2023-03-29T15:02:23;22.20;39.40
38265;DHT22;24062;47.480;8.768;2023-03-29T15:04:58;22.80;39.30
38265;DHT22;24062;47.480;8.768;2023-03-29T15:07:28;23.10;38.50
38265;DHT22;24062;47.480;8.768;2023-03-29T15:09:58;22.70;37.90
38265;DHT22;24062;47.480;8.768;2023-03-29T15:12:28;22.80;39.10
38265;DHT22;24062;47.480;8.768;2023-03-29T15:14:55;22.90;38.40
38265;DHT22;24062;47.480;8.768;2023-03-29T15:17:29;22.50;37.80
38265;DHT22;24062;47.480;8.768;2023-03-29T15:19:59;22.30;38.30
38265;DHT22;24062;47.480;8.768;2023-03-29T15:22:32;22.30;37.90
38265;DHT22;24062;47.480;8.768;2023-03-29T15:25:01;22.10;37.50
38265;DHT22;24062;47.480;8.768;2023-03-29T15:27:39;21.70;37.40
38265;DHT22;24062;47.480;8.768;2023-03-29T15:30:12;21.20;37.70
38265;DHT22;24062;47.480;8.768;2023-03-29T15:32:39;20.90;38.10
38265;DHT22;24062;47.480;8.768;2023-03-29T15:35:19;20.70;38.20
38265;DHT22;24062;47.480;8.768;2023-03-29T15:37:47;20.70;38.60
38265;DHT22;24062;47.480;8.768;2023-03-29T15:40:17;20.70;38.60
38265;DHT22;24062;47.480;8.768;2023-03-29T15:42:46;20.50;38.50
38265;DHT22;24062;47.480;8.768;2023-03-29T15:45:16;20.30;38.30
38265;DHT22;24062;47.480;8.768;2023-03-29T15:47:44;20.10;38.60
38265;DHT22;24062;47.480;8.768;2023-03-29T15:50:11;20.00;38.90
38265;DHT22;24062;47.480;8.768;2023-03-29T15:52:40;19.90;39.30
38265;DHT22;24062;47.480;8.768;2023-03-29T15:55:08;19.80;39.60
38265;DHT22;24062;47.480;8.768;2023-03-29T15:57:36;19.60;39.60
38265;DHT22;24062;47.480;8.768;2023-03-29T16:00:05;19.80;40.20
38265;DHT22;24062;47.480;8.768;2023-03-29T16:02:33;19.80;39.90
38265;DHT22;24062;47.480;8.768;2023-03-29T16:05:01;19.80;40.30
38265;DHT22;24062;47.480;8.768;2023-03-29T16:07:28;19.90;40.70
38265;DHT22;24062;47.480;8.768;2023-03-29T16:09:54;19.90;41.20
38265;DHT22;24062;47.480;8.768;2023-03-29T16:12:22;19.60;41.50
38265;DHT22;24062;47.480;8.768;2023-03-29T16:14:50;19.40;41.50
38265;DHT22;24062;47.480;8.768;2023-03-29T16:17:17;19.30;42.00